sensor_id;sensor_type;location;lat;lon;timestamp;P1;durP1;ratioP1;P2;durP2;ratioP2
151;SDS011;68;48.792;9.164;2023-03-19T00:01:47;6.70;;;4.28;;
151;SDS011;68;48.792;9.164;2023-03-19T00:04:13;5.00;;;3.75;;
151;SDS011;68;48.792;9.164;2023-03-19T00:06:41;8.07;;;3.70;;
151;SDS011;68;48.792;9.164;2023-03-19T00:09:08;6.00;;;4.30;;
151;SDS011;68;48.792;9.164;2023-03-19T00:11:35;6.28;;;3.97;;
151;SDS011;68;48.792;9.164;2023-03-19T00:14:01;7.15;;;4.50;;
151;SDS011;68;48.792;9.164;2023-03-19T00:16:28;8.05;;;4.40;;
151;SDS011;68;48.792;9.164;2023-03-19T00:18:56;7.97;;;4.63;;
151;SDS011;68;48.792;9.164;2023-03-19T00:21:23;7.47;;;4.30;;
151;SDS011;68;48.792;9.164;2023-03-19T00:23:50;8.30;;;4.80;;
151;SDS011;68;48.792;9.164;2023-03-19T00:26:17;7.13;;;4.75;;
151;SDS011;68;48.792;9.164;2023-03-19T00:28:44;9.65;;;4.90;;
151;SDS011;68;48.792;9.164;2023-03-19T00:31:11;7.47;;;4.70;;
151;SDS011;68;48.792;9.164;2023-03-19T00:33:40;5.00;;;4.43;;
151;SDS011;68;48.792;9.164;2023-03-19T00:36:09;6.05;;;4.13;;
151;SDS011;68;48.792;9.164;2023-03-19T00:38:37;11.00;;;4.85;;
151;SDS011;68;48.792;9.164;2023-03-19T00:41:04;8.10;;;4.07;;
151;SDS011;68;48.792;9.164;2023-03-19T00:43:31;5.25;;;4.20;;
151;SDS011;68;48.792;9.164;2023-03-19T00:45:58;7.50;;;4.20;;
151;SDS011;68;48.792;9.164;2023-03-19T00:48:25;9.35;;;4.65;;
151;SDS011;68;48.792;9.164;2023-03-19T00:50:52;6.55;;;4.00;;
151;SDS011;68;48.792;9.164;2023-03-19T00:53:20;6.63;;;4.35;;
151;SDS011;68;48.792;9.164;2023-03-19T00:55:47;6.22;;;4.60;;
151;SDS011;68;48.792;9.164;2023-03-19T00:58:14;6.95;;;4.60;;
151;SDS011;68;48.792;9.164;2023-03-19T01:00:41;6.90;;;4.90;;
151;SDS011;68;48.792;9.164;2023-03-19T01:03:08;9.60;;;5.20;;
151;SDS011;68;48.792;9.164;2023-03-19T01:05:34;7.20;;;4.40;;
151;SDS011;68;48.792;9.164;2023-03-19T01:08:01;10.05;;;5.05;;
151;SDS011;68;48.792;9.164;2023-03-19T01:10:31;8.18;;;5.38;;
151;SDS011;68;48.792;9.164;2023-03-19T01:12:59;7.80;;;5.30;;
151;SDS011;68;48.792;9.164;2023-03-19T01:15:26;13.27;;;5.40;;
151;SDS011;68;48.792;9.164;2023-03-19T01:17:53;9.55;;;6.35;;
151;SDS011;68;48.792;9.164;2023-03-19T01:20:20;8.75;;;6.30;;
151;SDS011;68;48.792;9.164;2023-03-19T01:22:48;11.57;;;6.60;;
151;SDS011;68;48.792;9.164;2023-03-19T01:25:15;9.57;;;6.78;;
151;SDS011;68;48.792;9.164;2023-03-19T01:27:43;12.38;;;7.40;;
151;SDS011;68;48.792;9.164;2023-03-19T01:30:10;13.35;;;7.88;;
151;SDS011;68;48.792;9.164;2023-03-19T01:32:38;15.45;;;8.60;;
151;SDS011;68;48.792;9.164;2023-03-19T01:35:05;15.32;;;8.35;;
151;SDS011;68;48.792;9.164;2023-03-19T01:37:33;13.27;;;8.30;;
151;SDS011;68;48.792;9.164;2023-03-19T01:40:01;14.23;;;8.15;;
151;SDS011;68;48.792;9.164;2023-03-19T01:42:28;13.73;;;8.95;;
151;SDS011;68;48.792;9.164;2023-03-19T01:44:57;16.88;;;8.32;;
151;SDS011;68;48.792;9.164;2023-03-19T01:47:29;15.18;;;8.57;;
151;SDS011;68;48.792;9.164;2023-03-19T01:49:57;16.92;;;8.25;;
151;SDS011;68;48.792;9.164;2023-03-19T01:52:26;11.18;;;6.85;;
151;SDS011;68;48.792;9.164;2023-03-19T01:54:57;20.52;;;6.20;;
151;SDS011;68;48.792;9.164;2023-03-19T01:57:26;9.07;;;5.97;;
151;SDS011;68;48.792;9.164;2023-03-19T01:59:55;11.25;;;5.30;;
151;SDS011;68;48.792;9.164;2023-03-19T02:02:26;8.85;;;4.80;;
151;SDS011;68;48.792;9.164;2023-03-19T02:04:55;5.60;;;4.15;;
151;SDS011;68;48.792;9.164;2023-03-19T02:07:26;7.20;;;4.03;;
151;SDS011;68;48.792;9.164;2023-03-19T02:09:54;9.68;;;4.47;;
151;SDS011;68;48.792;9.164;2023-03-19T02:12:21;6.60;;;4.47;;
151;SDS011;68;48.792;9.164;2023-03-19T02:14:48;6.32;;;4.43;;
151;SDS011;68;48.792;9.164;2023-03-19T02:17:16;8.45;;;4.90;;
151;SDS011;68;48.792;9.164;2023-03-19T02:19:45;6.57;;;4.75;;
151;SDS011;68;48.792;9.164;2023-03-19T02:22:15;5.68;;;4.53;;
151;SDS011;68;48.792;9.164;2023-03-19T02:24:47;6.88;;;4.60;;
151;SDS011;68;48.792;9.164;2023-03-19T02:27:18;8.05;;;4.65;;
151;SDS011;68;48.792;9.164;2023-03-19T02:29:45;7.30;;;5.63;;
151;SDS011;68;48.792;9.164;2023-03-19T02:32:12;6.07;;;4.90;;
151;SDS011;68;48.792;9.164;2023-03-19T02:34:39;8.05;;;4.97;;
151;SDS011;68;48.792;9.164;2023-03-19T02:37:09;6.82;;;4.85;;
151;SDS011;68;48.792;9.164;2023-03-19T02:39:44;6.07;;;4.65;;
151;SDS011;68;48.792;9.164;2023-03-19T02:42:15;5.88;;;4.93;;
151;SDS011;68;48.792;9.164;2023-03-19T02:44:45;5.47;;;4.70;;
151;SDS011;68;48.792;9.164;2023-03-19T02:47:12;7.80;;;5.30;;
151;SDS011;68;48.792;9.164;2023-03-19T02:49:39;8.45;;;5.18;;
151;SDS011;68;48.792;9.164;2023-03-19T02:52:06;5.60;;;4.80;;
151;SDS011;68;48.792;9.164;2023-03-19T02:54:33;6.47;;;5.03;;
151;SDS011;68;48.792;9.164;2023-03-19T02:57:00;7.88;;;4.68;;
151;SDS011;68;48.792;9.164;2023-03-19T02:59:28;5.68;;;4.93;;
151;SDS011;68;48.792;9.164;2023-03-19T03:01:56;4.90;;;4.65;;
151;SDS011;68;48.792;9.164;2023-03-19T03:04:23;7.97;;;5.43;;
151;SDS011;68;48.792;9.164;2023-03-19T03:06:50;6.95;;;5.82;;
151;SDS011;68;48.792;9.164;2023-03-19T03:09:18;5.55;;;5.00;;
151;SDS011;68;48.792;9.164;2023-03-19T03:11:45;6.70;;;5.82;;
151;SDS011;68;48.792;9.164;2023-03-19T03:14:12;6.00;;;5.35;;
151;SDS011;68;48.792;9.164;2023-03-19T03:16:39;8.07;;;5.82;;
151;SDS011;68;48.792;9.164;2023-03-19T03:19:07;7.03;;;5.35;;
151;SDS011;68;48.792;9.164;2023-03-19T03:21:34;6.80;;;6.10;;
151;SDS011;68;48.792;9.164;2023-03-19T03:24:00;6.60;;;5.07;;
151;SDS011;68;48.792;9.164;2023-03-19T03:26:27;6.40;;;6.03;;
151;SDS011;68;48.792;9.164;2023-03-19T03:28:55;7.85;;;5.53;;
151;SDS011;68;48.792;9.164;2023-03-19T03:31:21;7.75;;;5.85;;
151;SDS011;68;48.792;9.164;2023-03-19T03:33:48;8.60;;;6.10;;
151;SDS011;68;48.792;9.164;2023-03-19T03:36:17;7.88;;;6.00;;
151;SDS011;68;48.792;9.164;2023-03-19T03:38:44;8.25;;;6.10;;
151;SDS011;68;48.792;9.164;2023-03-19T03:41:10;7.95;;;6.45;;
151;SDS011;68;48.792;9.164;2023-03-19T03:43:37;8.00;;;6.18;;
151;SDS011;68;48.792;9.164;2023-03-19T03:46:05;9.35;;;6.60;;
151;SDS011;68;48.792;9.164;2023-03-19T03:48:32;7.25;;;6.00;;
151;SDS011;68;48.792;9.164;2023-03-19T03:50:59;9.10;;;6.65;;
151;SDS011;68;48.792;9.164;2023-03-19T03:53:28;7.63;;;6.15;;
151;SDS011;68;48.792;9.164;2023-03-19T03:55:55;8.35;;;6.40;;
151;SDS011;68;48.792;9.164;2023-03-19T03:58:22;10.20;;;6.43;;
151;SDS011;68;48.792;9.164;2023-03-19T04:00:49;8.15;;;6.65;;
151;SDS011;68;48.792;9.164;2023-03-19T04:03:16;6.93;;;6.13;;
151;SDS011;68;48.792;9.164;2023-03-19T04:05:43;8.95;;;6.72;;
151;SDS011;68;48.792;9.164;2023-03-19T04:08:10;12.27;;;6.65;;
151;SDS011;68;48.792;9.164;2023-03-19T04:10:39;9.48;;;7.05;;
151;SDS011;68;48.792;9.164;2023-03-19T04:13:07;7.10;;;6.25;;
151;SDS011;68;48.792;9.164;2023-03-19T04:15:34;10.77;;;6.60;;
151;SDS011;68;48.792;9.164;2023-03-19T04:18:01;11.55;;;8.35;;
151;SDS011;68;48.792;9.164;2023-03-19T04:20:28;9.90;;;6.30;;
151;SDS011;68;48.792;9.164;2023-03-19T04:22:55;10.38;;;6.70;;
151;SDS011;68;48.792;9.164;2023-03-19T04:25:22;7.88;;;6.35;;
151;SDS011;68;48.792;9.164;2023-03-19T04:27:51;6.85;;;5.90;;
151;SDS011;68;48.792;9.164;2023-03-19T04:30:18;8.70;;;6.45;;
151;SDS011;68;48.792;9.164;2023-03-19T04:32:45;8.50;;;6.35;;
151;SDS011;68;48.792;9.164;2023-03-19T04:35:11;6.70;;;5.80;;
151;SDS011;68;48.792;9.164;2023-03-19T04:37:38;7.80;;;6.05;;
151;SDS011;68;48.792;9.164;2023-03-19T04:40:06;11.20;;;6.10;;
151;SDS011;68;48.792;9.164;2023-03-19T04:42:34;6.28;;;5.30;;
151;SDS011;68;48.792;9.164;2023-03-19T04:45:03;8.40;;;6.20;;
151;SDS011;68;48.792;9.164;2023-03-19T04:47:30;7.88;;;6.05;;
151;SDS011;68;48.792;9.164;2023-03-19T04:49:57;8.00;;;5.90;;
151;SDS011;68;48.792;9.164;2023-03-19T04:52:24;6.82;;;5.38;;
151;SDS011;68;48.792;9.164;2023-03-19T04:54:53;8.70;;;5.70;;
151;SDS011;68;48.792;9.164;2023-03-19T04:57:20;6.97;;;5.35;;
151;SDS011;68;48.792;9.164;2023-03-19T04:59:46;8.70;;;5.88;;
151;SDS011;68;48.792;9.164;2023-03-19T05:02:15;8.02;;;5.90;;
151;SDS011;68;48.792;9.164;2023-03-19T05:04:42;13.48;;;5.97;;
151;SDS011;68;48.792;9.164;2023-03-19T05:07:09;7.13;;;5.65;;
151;SDS011;68;48.792;9.164;2023-03-19T05:09:37;6.63;;;5.65;;
151;SDS011;68;48.792;9.164;2023-03-19T05:12:04;10.35;;;5.90;;
151;SDS011;68;48.792;9.164;2023-03-19T05:14:32;8.40;;;5.97;;
151;SDS011;68;48.792;9.164;2023-03-19T05:16:59;7.20;;;5.68;;
151;SDS011;68;48.792;9.164;2023-03-19T05:19:27;8.70;;;6.05;;
151;SDS011;68;48.792;9.164;2023-03-19T05:21:54;10.10;;;7.20;;
151;SDS011;68;48.792;9.164;2023-03-19T05:24:22;8.88;;;6.18;;
151;SDS011;68;48.792;9.164;2023-03-19T05:26:48;8.20;;;6.25;;
151;SDS011;68;48.792;9.164;2023-03-19T05:29:16;7.75;;;5.97;;
151;SDS011;68;48.792;9.164;2023-03-19T05:31:43;7.35;;;6.03;;
151;SDS011;68;48.792;9.164;2023-03-19T05:34:10;9.32;;;6.88;;
151;SDS011;68;48.792;9.164;2023-03-19T05:36:38;12.88;;;6.85;;
151;SDS011;68;48.792;9.164;2023-03-19T05:39:05;8.13;;;6.35;;
151;SDS011;68;48.792;9.164;2023-03-19T05:41:32;9.60;;;6.72;;
151;SDS011;68;48.792;9.164;2023-03-19T05:43:59;9.57;;;6.65;;
151;SDS011;68;48.792;9.164;2023-03-19T05:46:26;11.80;;;6.72;;
151;SDS011;68;48.792;9.164;2023-03-19T05:48:52;10.52;;;6.60;;
151;SDS011;68;48.792;9.164;2023-03-19T05:51:19;7.55;;;6.10;;
151;SDS011;68;48.792;9.164;2023-03-19T05:53:47;8.63;;;6.32;;
151;SDS011;68;48.792;9.164;2023-03-19T05:56:14;8.18;;;6.28;;
151;SDS011;68;48.792;9.164;2023-03-19T05:58:41;7.32;;;6.50;;
151;SDS011;68;48.792;9.164;2023-03-19T06:01:08;9.63;;;6.93;;
151;SDS011;68;48.792;9.164;2023-03-19T06:03:34;10.18;;;6.35;;
151;SDS011;68;48.792;9.164;2023-03-19T06:06:01;8.38;;;5.90;;
151;SDS011;68;48.792;9.164;2023-03-19T06:08:28;10.25;;;6.30;;
151;SDS011;68;48.792;9.164;2023-03-19T06:10:56;9.15;;;6.38;;
151;SDS011;68;48.792;9.164;2023-03-19T06:13:23;6.22;;;5.20;;
151;SDS011;68;48.792;9.164;2023-03-19T06:15:50;9.07;;;6.22;;
151;SDS011;68;48.792;9.164;2023-03-19T06:18:17;6.90;;;5.35;;
151;SDS011;68;48.792;9.164;2023-03-19T06:20:44;10.82;;;5.90;;
151;SDS011;68;48.792;9.164;2023-03-19T06:23:12;9.25;;;5.45;;
151;SDS011;68;48.792;9.164;2023-03-19T06:25:39;8.43;;;6.15;;
151;SDS011;68;48.792;9.164;2023-03-19T06:28:07;6.88;;;4.90;;
151;SDS011;68;48.792;9.164;2023-03-19T06:30:34;7.68;;;5.25;;
151;SDS011;68;48.792;9.164;2023-03-19T06:33:01;6.80;;;5.30;;
151;SDS011;68;48.792;9.164;2023-03-19T06:35:28;7.85;;;5.05;;
151;SDS011;68;48.792;9.164;2023-03-19T06:37:54;6.85;;;5.32;;
151;SDS011;68;48.792;9.164;2023-03-19T06:40:21;8.05;;;5.38;;
151;SDS011;68;48.792;9.164;2023-03-19T06:42:48;8.82;;;4.88;;
151;SDS011;68;48.792;9.164;2023-03-19T06:45:17;6.43;;;4.95;;
151;SDS011;68;48.792;9.164;2023-03-19T06:47:44;8.18;;;4.60;;
151;SDS011;68;48.792;9.164;2023-03-19T06:50:12;5.60;;;4.90;;
151;SDS011;68;48.792;9.164;2023-03-19T06:52:40;6.50;;;5.30;;
151;SDS011;68;48.792;9.164;2023-03-19T06:55:07;8.65;;;5.20;;
151;SDS011;68;48.792;9.164;2023-03-19T06:57:35;8.68;;;5.18;;
151;SDS011;68;48.792;9.164;2023-03-19T07:00:02;8.90;;;5.20;;
151;SDS011;68;48.792;9.164;2023-03-19T07:02:32;9.05;;;5.35;;
151;SDS011;68;48.792;9.164;2023-03-19T07:04:59;9.35;;;6.13;;
151;SDS011;68;48.792;9.164;2023-03-19T07:07:26;9.15;;;5.20;;
151;SDS011;68;48.792;9.164;2023-03-19T07:09:53;9.45;;;5.50;;
151;SDS011;68;48.792;9.164;2023-03-19T07:12:20;7.75;;;5.65;;
151;SDS011;68;48.792;9.164;2023-03-19T07:14:46;6.38;;;5.13;;
151;SDS011;68;48.792;9.164;2023-03-19T07:17:13;8.70;;;5.57;;
151;SDS011;68;48.792;9.164;2023-03-19T07:19:41;7.60;;;5.00;;
151;SDS011;68;48.792;9.164;2023-03-19T07:22:08;9.63;;;4.72;;
151;SDS011;68;48.792;9.164;2023-03-19T07:24:35;7.70;;;4.93;;
151;SDS011;68;48.792;9.164;2023-03-19T07:27:02;6.85;;;5.15;;
151;SDS011;68;48.792;9.164;2023-03-19T07:29:28;8.05;;;4.80;;
151;SDS011;68;48.792;9.164;2023-03-19T07:31:55;6.85;;;5.15;;
151;SDS011;68;48.792;9.164;2023-03-19T07:34:22;9.57;;;5.88;;
151;SDS011;68;48.792;9.164;2023-03-19T07:36:50;11.07;;;5.45;;
151;SDS011;68;48.792;9.164;2023-03-19T07:39:18;6.50;;;4.90;;
151;SDS011;68;48.792;9.164;2023-03-19T07:41:45;9.05;;;4.82;;
151;SDS011;68;48.792;9.164;2023-03-19T07:44:12;6.70;;;5.40;;
151;SDS011;68;48.792;9.164;2023-03-19T07:46:40;8.15;;;4.85;;
151;SDS011;68;48.792;9.164;2023-03-19T07:49:06;8.60;;;5.15;;
151;SDS011;68;48.792;9.164;2023-03-19T07:51:33;7.10;;;5.15;;
151;SDS011;68;48.792;9.164;2023-03-19T07:54:02;8.82;;;5.55;;
151;SDS011;68;48.792;9.164;2023-03-19T07:56:29;8.35;;;5.20;;
151;SDS011;68;48.792;9.164;2023-03-19T07:58:56;10.10;;;4.68;;
151;SDS011;68;48.792;9.164;2023-03-19T08:01:23;8.82;;;5.35;;
151;SDS011;68;48.792;9.164;2023-03-19T08:03:51;7.25;;;5.00;;
151;SDS011;68;48.792;9.164;2023-03-19T08:06:17;7.35;;;4.57;;
151;SDS011;68;48.792;9.164;2023-03-19T08:08:44;9.13;;;4.97;;
151;SDS011;68;48.792;9.164;2023-03-19T08:11:12;6.03;;;4.63;;
151;SDS011;68;48.792;9.164;2023-03-19T08:13:39;9.23;;;4.50;;
151;SDS011;68;48.792;9.164;2023-03-19T08:16:06;6.20;;;4.78;;
151;SDS011;68;48.792;9.164;2023-03-19T08:18:33;6.70;;;4.68;;
151;SDS011;68;48.792;9.164;2023-03-19T08:21:00;6.43;;;4.80;;
151;SDS011;68;48.792;9.164;2023-03-19T08:23:27;8.20;;;4.93;;
151;SDS011;68;48.792;9.164;2023-03-19T08:25:54;8.70;;;4.70;;
151;SDS011;68;48.792;9.164;2023-03-19T08:28:22;5.47;;;4.70;;
151;SDS011;68;48.792;9.164;2023-03-19T08:30:49;7.10;;;4.70;;
151;SDS011;68;48.792;9.164;2023-03-19T08:33:16;6.45;;;4.40;;
151;SDS011;68;48.792;9.164;2023-03-19T08:35:43;5.75;;;4.38;;
151;SDS011;68;48.792;9.164;2023-03-19T08:38:09;8.38;;;4.32;;
151;SDS011;68;48.792;9.164;2023-03-19T08:40:36;7.97;;;4.85;;
151;SDS011;68;48.792;9.164;2023-03-19T08:43:03;5.75;;;4.38;;
151;SDS011;68;48.792;9.164;2023-03-19T08:45:32;8.07;;;5.00;;
151;SDS011;68;48.792;9.164;2023-03-19T08:47:58;9.30;;;5.15;;
151;SDS011;68;48.792;9.164;2023-03-19T08:50:25;10.40;;;4.63;;
151;SDS011;68;48.792;9.164;2023-03-19T08:52:52;5.95;;;4.65;;
151;SDS011;68;48.792;9.164;2023-03-19T08:55:19;10.30;;;5.70;;
151;SDS011;68;48.792;9.164;2023-03-19T08:57:46;9.52;;;5.05;;
151;SDS011;68;48.792;9.164;2023-03-19T09:00:14;9.00;;;5.03;;
151;SDS011;68;48.792;9.164;2023-03-19T09:02:43;7.55;;;5.05;;
151;SDS011;68;48.792;9.164;2023-03-19T09:05:09;7.18;;;5.20;;
151;SDS011;68;48.792;9.164;2023-03-19T09:07:36;6.55;;;4.95;;
151;SDS011;68;48.792;9.164;2023-03-19T09:10:03;11.73;;;4.93;;
151;SDS011;68;48.792;9.164;2023-03-19T09:12:31;6.93;;;4.97;;
151;SDS011;68;48.792;9.164;2023-03-19T09:14:58;8.30;;;5.03;;
151;SDS011;68;48.792;9.164;2023-03-19T09:17:24;5.80;;;4.32;;
151;SDS011;68;48.792;9.164;2023-03-19T09:19:52;6.03;;;4.85;;
151;SDS011;68;48.792;9.164;2023-03-19T09:22:19;6.60;;;4.80;;
151;SDS011;68;48.792;9.164;2023-03-19T09:24:46;7.70;;;4.80;;
151;SDS011;68;48.792;9.164;2023-03-19T09:27:13;9.17;;;4.90;;
151;SDS011;68;48.792;9.164;2023-03-19T09:29:40;7.00;;;4.80;;
151;SDS011;68;48.792;9.164;2023-03-19T09:32:06;8.17;;;4.50;;
151;SDS011;68;48.792;9.164;2023-03-19T09:34:33;6.32;;;4.45;;
151;SDS011;68;48.792;9.164;2023-03-19T09:37:02;8.07;;;4.77;;
151;SDS011;68;48.792;9.164;2023-03-19T09:39:28;6.50;;;4.73;;
151;SDS011;68;48.792;9.164;2023-03-19T09:41:59;7.57;;;4.80;;
151;SDS011;68;48.792;9.164;2023-03-19T09:44:37;7.40;;;4.65;;
151;SDS011;68;48.792;9.164;2023-03-19T09:47:11;5.70;;;4.63;;
151;SDS011;68;48.792;9.164;2023-03-19T09:49:51;8.40;;;4.57;;
151;SDS011;68;48.792;9.164;2023-03-19T09:52:26;4.93;;;4.00;;
151;SDS011;68;48.792;9.164;2023-03-19T09:54:59;5.47;;;4.10;;
151;SDS011;68;48.792;9.164;2023-03-19T09:57:32;12.63;;;4.40;;
151;SDS011;68;48.792;9.164;2023-03-19T10:00:01;9.07;;;4.37;;
151;SDS011;68;48.792;9.164;2023-03-19T10:02:36;8.87;;;4.40;;
151;SDS011;68;48.792;9.164;2023-03-19T10:05:09;5.27;;;4.23;;
151;SDS011;68;48.792;9.164;2023-03-19T10:13:28;8.87;;;4.10;;
151;SDS011;68;48.792;9.164;2023-03-19T10:16:04;5.20;;;3.73;;
151;SDS011;68;48.792;9.164;2023-03-19T10:18:37;4.13;;;3.47;;
151;SDS011;68;48.792;9.164;2023-03-19T10:21:13;5.27;;;3.50;;
151;SDS011;68;48.792;9.164;2023-03-19T10:23:45;6.00;;;3.77;;
151;SDS011;68;48.792;9.164;2023-03-19T10:26:17;5.70;;;3.67;;
151;SDS011;68;48.792;9.164;2023-03-19T10:28:49;5.20;;;4.00;;
151;SDS011;68;48.792;9.164;2023-03-19T10:31:25;4.03;;;3.50;;
151;SDS011;68;48.792;9.164;2023-03-19T10:33:57;7.20;;;4.40;;
151;SDS011;68;48.792;9.164;2023-03-19T10:36:38;6.10;;;4.30;;
151;SDS011;68;48.792;9.164;2023-03-19T10:39:06;8.03;;;3.80;;
151;SDS011;68;48.792;9.164;2023-03-19T10:41:37;9.10;;;4.30;;
151;SDS011;68;48.792;9.164;2023-03-19T10:44:14;4.40;;;3.80;;
151;SDS011;68;48.792;9.164;2023-03-19T10:46:49;8.27;;;4.23;;
151;SDS011;68;48.792;9.164;2023-03-19T10:49:16;5.47;;;3.47;;
151;SDS011;68;48.792;9.164;2023-03-19T10:51:44;6.90;;;4.27;;
151;SDS011;68;48.792;9.164;2023-03-19T10:54:22;13.43;;;3.80;;
151;SDS011;68;48.792;9.164;2023-03-19T10:56:50;3.87;;;3.10;;
151;SDS011;68;48.792;9.164;2023-03-19T10:59:20;6.20;;;3.70;;
151;SDS011;68;48.792;9.164;2023-03-19T11:01:49;6.93;;;3.70;;
151;SDS011;68;48.792;9.164;2023-03-19T11:04:22;4.37;;;3.27;;
151;SDS011;68;48.792;9.164;2023-03-19T11:06:52;7.73;;;3.33;;
151;SDS011;68;48.792;9.164;2023-03-19T11:09:24;4.43;;;3.50;;
151;SDS011;68;48.792;9.164;2023-03-19T11:11:57;3.70;;;3.20;;
151;SDS011;68;48.792;9.164;2023-03-19T11:14:31;5.20;;;3.70;;
151;SDS011;68;48.792;9.164;2023-03-19T11:17:02;4.90;;;3.37;;
151;SDS011;68;48.792;9.164;2023-03-19T11:19:32;6.40;;;3.40;;
151;SDS011;68;48.792;9.164;2023-03-19T11:22:11;4.87;;;3.60;;
151;SDS011;68;48.792;9.164;2023-03-19T11:24:47;6.40;;;3.90;;
151;SDS011;68;48.792;9.164;2023-03-19T11:27:16;5.00;;;3.50;;
151;SDS011;68;48.792;9.164;2023-03-19T11:29:44;5.73;;;3.83;;
151;SDS011;68;48.792;9.164;2023-03-19T11:32:24;10.07;;;3.87;;
151;SDS011;68;48.792;9.164;2023-03-19T11:35:03;5.70;;;3.47;;
151;SDS011;68;48.792;9.164;2023-03-19T11:37:41;5.20;;;3.50;;
151;SDS011;68;48.792;9.164;2023-03-19T11:40:19;5.40;;;3.70;;
151;SDS011;68;48.792;9.164;2023-03-19T11:42:55;8.50;;;3.80;;
151;SDS011;68;48.792;9.164;2023-03-19T11:45:47;5.03;;;3.87;;
151;SDS011;68;48.792;9.164;2023-03-19T11:48:23;4.77;;;3.60;;
151;SDS011;68;48.792;9.164;2023-03-19T11:51:03;4.27;;;3.13;;
151;SDS011;68;48.792;9.164;2023-03-19T11:53:36;5.37;;;3.40;;
151;SDS011;68;48.792;9.164;2023-03-19T11:56:20;8.73;;;3.63;;
151;SDS011;68;48.792;9.164;2023-03-19T11:59:10;5.20;;;3.00;;
151;SDS011;68;48.792;9.164;2023-03-19T12:01:52;6.33;;;4.30;;
151;SDS011;68;48.792;9.164;2023-03-19T12:04:40;5.73;;;3.67;;
151;SDS011;68;48.792;9.164;2023-03-19T12:07:22;6.40;;;3.50;;
151;SDS011;68;48.792;9.164;2023-03-19T12:09:59;5.20;;;3.70;;
151;SDS011;68;48.792;9.164;2023-03-19T12:12:35;5.30;;;3.83;;
151;SDS011;68;48.792;9.164;2023-03-19T12:15:11;11.63;;;3.40;;
151;SDS011;68;48.792;9.164;2023-03-19T12:17:51;6.10;;;3.43;;
151;SDS011;68;48.792;9.164;2023-03-19T12:20:29;6.57;;;3.60;;
151;SDS011;68;48.792;9.164;2023-03-19T12:23:06;5.13;;;3.77;;
151;SDS011;68;48.792;9.164;2023-03-19T12:25:41;6.10;;;4.33;;
151;SDS011;68;48.792;9.164;2023-03-19T12:28:30;9.37;;;5.80;;
151;SDS011;68;48.792;9.164;2023-03-19T12:31:07;10.23;;;5.67;;
151;SDS011;68;48.792;9.164;2023-03-19T12:33:46;6.57;;;3.60;;
151;SDS011;68;48.792;9.164;2023-03-19T12:36:18;6.70;;;3.67;;
151;SDS011;68;48.792;9.164;2023-03-19T12:38:49;11.53;;;3.70;;
151;SDS011;68;48.792;9.164;2023-03-19T12:41:19;4.53;;;3.40;;
151;SDS011;68;48.792;9.164;2023-03-19T12:43:52;6.10;;;4.00;;
151;SDS011;68;48.792;9.164;2023-03-19T12:46:24;6.30;;;3.70;;
151;SDS011;68;48.792;9.164;2023-03-19T12:48:56;5.80;;;3.60;;
151;SDS011;68;48.792;9.164;2023-03-19T12:51:25;6.70;;;4.00;;
151;SDS011;68;48.792;9.164;2023-03-19T12:53:55;5.50;;;3.60;;
151;SDS011;68;48.792;9.164;2023-03-19T12:56:26;8.17;;;3.70;;
151;SDS011;68;48.792;9.164;2023-03-19T12:59:01;7.60;;;4.23;;
151;SDS011;68;48.792;9.164;2023-03-19T13:01:36;7.67;;;4.00;;
151;SDS011;68;48.792;9.164;2023-03-19T13:04:07;9.87;;;5.63;;
151;SDS011;68;48.792;9.164;2023-03-19T13:06:40;9.23;;;7.17;;
151;SDS011;68;48.792;9.164;2023-03-19T13:09:14;7.13;;;4.53;;
151;SDS011;68;48.792;9.164;2023-03-19T13:11:50;3.90;;;3.57;;
151;SDS011;68;48.792;9.164;2023-03-19T13:14:24;4.80;;;3.90;;
151;SDS011;68;48.792;9.164;2023-03-19T13:16:58;8.70;;;4.10;;
151;SDS011;68;48.792;9.164;2023-03-19T13:19:33;8.07;;;4.20;;
151;SDS011;68;48.792;9.164;2023-03-19T13:22:09;6.63;;;3.70;;
151;SDS011;68;48.792;9.164;2023-03-19T13:24:38;6.77;;;3.77;;
151;SDS011;68;48.792;9.164;2023-03-19T13:27:10;6.25;;;4.35;;
151;SDS011;68;48.792;9.164;2023-03-19T13:29:52;6.70;;;4.68;;
151;SDS011;68;48.792;9.164;2023-03-19T13:32:26;7.00;;;4.88;;
151;SDS011;68;48.792;9.164;2023-03-19T13:35:17;7.15;;;4.28;;
151;SDS011;68;48.792;9.164;2023-03-19T13:37:54;9.55;;;3.90;;
151;SDS011;68;48.792;9.164;2023-03-19T13:40:37;5.60;;;4.40;;
151;SDS011;68;48.792;9.164;2023-03-19T13:43:19;6.67;;;4.47;;
151;SDS011;68;48.792;9.164;2023-03-19T13:46:34;7.82;;;4.75;;
151;SDS011;68;48.792;9.164;2023-03-19T13:52:00;4.50;;;4.00;;
151;SDS011;68;48.792;9.164;2023-03-19T13:54:49;4.18;;;3.80;;
151;SDS011;68;48.792;9.164;2023-03-19T13:57:31;8.63;;;4.37;;
151;SDS011;68;48.792;9.164;2023-03-19T14:00:52;5.20;;;4.30;;
151;SDS011;68;48.792;9.164;2023-03-19T14:03:19;7.40;;;4.65;;
151;SDS011;68;48.792;9.164;2023-03-19T14:05:47;9.90;;;5.20;;
151;SDS011;68;48.792;9.164;2023-03-19T14:08:18;8.43;;;4.77;;
151;SDS011;68;48.792;9.164;2023-03-19T14:10:47;5.77;;;4.87;;
151;SDS011;68;48.792;9.164;2023-03-19T14:13:18;6.73;;;4.50;;
151;SDS011;68;48.792;9.164;2023-03-19T14:15:51;7.72;;;4.63;;
151;SDS011;68;48.792;9.164;2023-03-19T14:18:21;6.20;;;5.00;;
151;SDS011;68;48.792;9.164;2023-03-19T14:20:56;6.03;;;4.70;;
151;SDS011;68;48.792;9.164;2023-03-19T14:23:24;6.00;;;4.40;;
151;SDS011;68;48.792;9.164;2023-03-19T14:25:55;10.10;;;5.27;;
151;SDS011;68;48.792;9.164;2023-03-19T14:28:28;6.20;;;5.10;;
151;SDS011;68;48.792;9.164;2023-03-19T14:31:04;6.40;;;4.60;;
151;SDS011;68;48.792;9.164;2023-03-19T14:33:42;6.93;;;4.83;;
151;SDS011;68;48.792;9.164;2023-03-19T14:36:13;5.00;;;4.50;;
151;SDS011;68;48.792;9.164;2023-03-19T14:38:47;10.50;;;4.70;;
151;SDS011;68;48.792;9.164;2023-03-19T14:41:16;6.20;;;4.60;;
151;SDS011;68;48.792;9.164;2023-03-19T14:43:55;8.13;;;5.13;;
151;SDS011;68;48.792;9.164;2023-03-19T14:46:54;6.30;;;4.50;;
151;SDS011;68;48.792;9.164;2023-03-19T14:52:41;7.40;;;4.50;;
151;SDS011;68;48.792;9.164;2023-03-19T14:55:12;6.63;;;4.80;;
151;SDS011;68;48.792;9.164;2023-03-19T14:57:41;8.70;;;4.70;;
151;SDS011;68;48.792;9.164;2023-03-19T15:00:12;7.50;;;4.50;;
151;SDS011;68;48.792;9.164;2023-03-19T15:02:42;6.20;;;4.00;;
151;SDS011;68;48.792;9.164;2023-03-19T15:05:13;7.80;;;4.60;;
151;SDS011;68;48.792;9.164;2023-03-19T15:07:46;5.55;;;3.95;;
151;SDS011;68;48.792;9.164;2023-03-19T15:10:16;6.70;;;4.03;;
151;SDS011;68;48.792;9.164;2023-03-19T15:13:05;6.47;;;4.17;;
151;SDS011;68;48.792;9.164;2023-03-19T15:15:50;6.77;;;4.27;;
151;SDS011;68;48.792;9.164;2023-03-19T15:18:27;5.80;;;3.83;;
151;SDS011;68;48.792;9.164;2023-03-19T15:20:54;5.73;;;3.80;;
151;SDS011;68;48.792;9.164;2023-03-19T15:23:24;4.63;;;4.00;;
151;SDS011;68;48.792;9.164;2023-03-19T15:25:53;7.75;;;3.97;;
151;SDS011;68;48.792;9.164;2023-03-19T15:28:22;5.05;;;4.07;;
151;SDS011;68;48.792;9.164;2023-03-19T15:30:53;4.00;;;3.55;;
151;SDS011;68;48.792;9.164;2023-03-19T15:33:23;5.00;;;3.73;;
151;SDS011;68;48.792;9.164;2023-03-19T15:35:56;3.83;;;3.50;;
151;SDS011;68;48.792;9.164;2023-03-19T15:38:28;5.00;;;3.83;;
151;SDS011;68;48.792;9.164;2023-03-19T15:40:58;7.53;;;3.93;;
151;SDS011;68;48.792;9.164;2023-03-19T15:43:27;5.55;;;3.75;;
151;SDS011;68;48.792;9.164;2023-03-19T15:45:54;5.72;;;3.92;;
151;SDS011;68;48.792;9.164;2023-03-19T15:48:21;5.82;;;3.38;;
151;SDS011;68;48.792;9.164;2023-03-19T15:50:54;3.93;;;3.77;;
151;SDS011;68;48.792;9.164;2023-03-19T15:53:24;5.95;;;3.90;;
151;SDS011;68;48.792;9.164;2023-03-19T15:55:55;4.95;;;4.22;;
151;SDS011;68;48.792;9.164;2023-03-19T15:58:23;8.63;;;4.20;;
151;SDS011;68;48.792;9.164;2023-03-19T16:00:52;6.40;;;4.40;;
151;SDS011;68;48.792;9.164;2023-03-19T16:03:21;7.43;;;3.85;;
151;SDS011;68;48.792;9.164;2023-03-19T16:05:57;6.80;;;4.20;;
151;SDS011;68;48.792;9.164;2023-03-19T16:08:28;5.35;;;4.00;;
151;SDS011;68;48.792;9.164;2023-03-19T16:13:38;6.50;;;4.60;;
151;SDS011;68;48.792;9.164;2023-03-19T16:16:06;6.47;;;4.57;;
151;SDS011;68;48.792;9.164;2023-03-19T16:18:46;8.50;;;5.50;;
151;SDS011;68;48.792;9.164;2023-03-19T16:21:15;7.85;;;5.40;;
151;SDS011;68;48.792;9.164;2023-03-19T16:23:48;7.47;;;5.30;;
151;SDS011;68;48.792;9.164;2023-03-19T16:26:18;6.70;;;4.85;;
151;SDS011;68;48.792;9.164;2023-03-19T16:28:48;5.60;;;4.50;;
151;SDS011;68;48.792;9.164;2023-03-19T16:31:26;6.47;;;5.00;;
151;SDS011;68;48.792;9.164;2023-03-19T16:33:56;7.22;;;5.07;;